sensor_id;sensor_type;location;lat;lon;timestamp;P1;durP1;ratioP1;P2;durP2;ratioP2
3407;SDS011;1717;50.240;8.406;2023-06-19T00:02:28;9.73;;;8.93;;
3407;SDS011;1717;50.240;8.406;2023-06-19T00:04:54;9.43;;;8.63;;
3407;SDS011;1717;50.240;8.406;2023-06-19T00:07:21;10.53;;;9.63;;
3407;SDS011;1717;50.240;8.406;2023-06-19T00:09:48;10.10;;;9.10;;
3407;SDS011;1717;50.240;8.406;2023-06-19T00:12:15;9.30;;;8.50;;
3407;SDS011;1717;50.240;8.406;2023-06-19T00:14:43;10.23;;;9.33;;
3407;SDS011;1717;50.240;8.406;2023-06-19T00:17:10;10.20;;;9.30;;
3407;SDS011;1717;50.240;8.406;2023-06-19T00:19:37;8.90;;;8.20;;
3407;SDS011;1717;50.240;8.406;2023-06-19T00:22:04;9.70;;;8.90;;
3407;SDS011;1717;50.240;8.406;2023-06-19T00:24:31;11.30;;;10.27;;
3407;SDS011;1717;50.240;8.406;2023-06-19T00:26:58;10.83;;;9.90;;
3407;SDS011;1717;50.240;8.406;2023-06-19T00:29:27;11.43;;;10.33;;
3407;SDS011;1717;50.240;8.406;2023-06-19T00:31:56;10.87;;;9.87;;
3407;SDS011;1717;50.240;8.406;2023-06-19T00:34:22;10.57;;;9.30;;
3407;SDS011;1717;50.240;8.406;2023-06-19T00:36:50;9.40;;;8.60;;
3407;SDS011;1717;50.240;8.406;2023-06-19T00:39:22;10.93;;;9.27;;
3407;SDS011;1717;50.240;8.406;2023-06-19T00:41:49;10.57;;;9.67;;
3407;SDS011;1717;50.240;8.406;2023-06-19T00:44:18;10.20;;;9.40;;
3407;SDS011;1717;50.240;8.406;2023-06-19T00:46:44;8.40;;;7.77;;
3407;SDS011;1717;50.240;8.406;2023-06-19T00:49:13;10.83;;;9.97;;
3407;SDS011;1717;50.240;8.406;2023-06-19T00:51:41;10.40;;;9.57;;
3407;SDS011;1717;50.240;8.406;2023-06-19T00:54:08;10.70;;;9.80;;
3407;SDS011;1717;50.240;8.406;2023-06-19T00:56:35;10.37;;;9.47;;
3407;SDS011;1717;50.240;8.406;2023-06-19T00:59:05;9.37;;;8.40;;
3407;SDS011;1717;50.240;8.406;2023-06-19T01:01:37;9.37;;;8.57;;
3407;SDS011;1717;50.240;8.406;2023-06-19T01:04:04;9.20;;;8.40;;
3407;SDS011;1717;50.240;8.406;2023-06-19T01:06:34;9.37;;;8.57;;
3407;SDS011;1717;50.240;8.406;2023-06-19T01:09:08;9.40;;;8.60;;
3407;SDS011;1717;50.240;8.406;2023-06-19T01:11:40;9.40;;;8.50;;
3407;SDS011;1717;50.240;8.406;2023-06-19T01:14:13;9.80;;;9.00;;
3407;SDS011;1717;50.240;8.406;2023-06-19T01:16:44;9.87;;;8.97;;
3407;SDS011;1717;50.240;8.406;2023-06-19T01:19:11;9.70;;;8.80;;
3407;SDS011;1717;50.240;8.406;2023-06-19T01:21:45;8.40;;;7.77;;
3407;SDS011;1717;50.240;8.406;2023-06-19T01:24:13;10.33;;;8.97;;
3407;SDS011;1717;50.240;8.406;2023-06-19T01:26:40;10.77;;;9.83;;
3407;SDS011;1717;50.240;8.406;2023-06-19T01:29:10;9.33;;;8.43;;
3407;SDS011;1717;50.240;8.406;2023-06-19T01:31:45;9.70;;;8.70;;
3407;SDS011;1717;50.240;8.406;2023-06-19T01:34:21;10.20;;;9.30;;
3407;SDS011;1717;50.240;8.406;2023-06-19T01:36:52;9.40;;;8.17;;
3407;SDS011;1717;50.240;8.406;2023-06-19T01:39:23;8.90;;;8.10;;
3407;SDS011;1717;50.240;8.406;2023-06-19T01:41:51;8.57;;;7.77;;
3407;SDS011;1717;50.240;8.406;2023-06-19T01:44:20;8.50;;;7.80;;
3407;SDS011;1717;50.240;8.406;2023-06-19T01:46:47;8.80;;;8.10;;
3407;SDS011;1717;50.240;8.406;2023-06-19T01:49:15;9.00;;;8.27;;
3407;SDS011;1717;50.240;8.406;2023-06-19T01:51:42;8.97;;;8.27;;
3407;SDS011;1717;50.240;8.406;2023-06-19T01:54:09;9.03;;;8.20;;
3407;SDS011;1717;50.240;8.406;2023-06-19T01:56:37;8.80;;;8.00;;
3407;SDS011;1717;50.240;8.406;2023-06-19T01:59:04;8.23;;;7.60;;
3407;SDS011;1717;50.240;8.406;2023-06-19T02:01:31;9.20;;;8.40;;
3407;SDS011;1717;50.240;8.406;2023-06-19T02:03:58;8.47;;;7.67;;
3407;SDS011;1717;50.240;8.406;2023-06-19T02:06:25;9.47;;;8.60;;
3407;SDS011;1717;50.240;8.406;2023-06-19T02:08:51;8.90;;;8.20;;
3407;SDS011;1717;50.240;8.406;2023-06-19T02:11:18;9.40;;;8.60;;
3407;SDS011;1717;50.240;8.406;2023-06-19T02:13:47;8.47;;;7.77;;
3407;SDS011;1717;50.240;8.406;2023-06-19T02:16:14;8.60;;;7.90;;
3407;SDS011;1717;50.240;8.406;2023-06-19T02:18:41;8.63;;;7.90;;
3407;SDS011;1717;50.240;8.406;2023-06-19T02:21:08;8.67;;;7.97;;
3407;SDS011;1717;50.240;8.406;2023-06-19T02:23:34;9.10;;;8.30;;
3407;SDS011;1717;50.240;8.406;2023-06-19T02:26:01;9.90;;;9.00;;
3407;SDS011;1717;50.240;8.406;2023-06-19T02:28:28;9.47;;;8.67;;
3407;SDS011;1717;50.240;8.406;2023-06-19T02:30:56;9.83;;;8.90;;
3407;SDS011;1717;50.240;8.406;2023-06-19T02:33:23;9.10;;;8.20;;
3407;SDS011;1717;50.240;8.406;2023-06-19T02:35:50;9.30;;;8.40;;
3407;SDS011;1717;50.240;8.406;2023-06-19T02:38:17;8.80;;;8.10;;
3407;SDS011;1717;50.240;8.406;2023-06-19T02:40:46;9.97;;;9.17;;
3407;SDS011;1717;50.240;8.406;2023-06-19T02:43:13;8.73;;;8.03;;
3407;SDS011;1717;50.240;8.406;2023-06-19T02:45:40;10.27;;;9.40;;
3407;SDS011;1717;50.240;8.406;2023-06-19T02:48:08;9.53;;;8.73;;
3407;SDS011;1717;50.240;8.406;2023-06-19T02:50:36;9.97;;;9.07;;
3407;SDS011;1717;50.240;8.406;2023-06-19T02:53:02;9.90;;;9.10;;
3407;SDS011;1717;50.240;8.406;2023-06-19T02:55:29;9.67;;;8.77;;
3407;SDS011;1717;50.240;8.406;2023-06-19T02:57:56;10.03;;;9.03;;
3407;SDS011;1717;50.240;8.406;2023-06-19T03:00:23;10.30;;;9.30;;
3407;SDS011;1717;50.240;8.406;2023-06-19T03:02:50;10.07;;;9.27;;
3407;SDS011;1717;50.240;8.406;2023-06-19T03:05:18;11.00;;;10.10;;
3407;SDS011;1717;50.240;8.406;2023-06-19T03:07:45;10.87;;;9.90;;
3407;SDS011;1717;50.240;8.406;2023-06-19T03:10:11;10.90;;;9.90;;
3407;SDS011;1717;50.240;8.406;2023-06-19T03:12:38;9.70;;;8.70;;
3407;SDS011;1717;50.240;8.406;2023-06-19T03:15:05;11.20;;;10.30;;
3407;SDS011;1717;50.240;8.406;2023-06-19T03:17:33;12.07;;;8.50;;
3407;SDS011;1717;50.240;8.406;2023-06-19T03:19:59;10.53;;;9.63;;
3407;SDS011;1717;50.240;8.406;2023-06-19T03:22:28;10.70;;;9.70;;
3407;SDS011;1717;50.240;8.406;2023-06-19T03:24:54;10.40;;;9.50;;
3407;SDS011;1717;50.240;8.406;2023-06-19T03:27:21;11.00;;;10.03;;
3407;SDS011;1717;50.240;8.406;2023-06-19T03:29:49;10.70;;;9.80;;
3407;SDS011;1717;50.240;8.406;2023-06-19T03:32:16;11.20;;;10.17;;
3407;SDS011;1717;50.240;8.406;2023-06-19T03:34:44;9.70;;;8.87;;
3407;SDS011;1717;50.240;8.406;2023-06-19T03:37:10;9.57;;;8.70;;
3407;SDS011;1717;50.240;8.406;2023-06-19T03:39:39;10.57;;;9.57;;
3407;SDS011;1717;50.240;8.406;2023-06-19T03:42:07;9.77;;;9.00;;
3407;SDS011;1717;50.240;8.406;2023-06-19T03:44:34;11.67;;;10.60;;
3407;SDS011;1717;50.240;8.406;2023-06-19T03:47:01;10.33;;;9.43;;
3407;SDS011;1717;50.240;8.406;2023-06-19T03:49:27;11.93;;;10.83;;
3407;SDS011;1717;50.240;8.406;2023-06-19T03:51:54;9.73;;;8.93;;
3407;SDS011;1717;50.240;8.406;2023-06-19T03:54:21;9.97;;;9.07;;
3407;SDS011;1717;50.240;8.406;2023-06-19T03:56:49;8.70;;;8.10;;
3407;SDS011;1717;50.240;8.406;2023-06-19T03:59:16;9.77;;;8.97;;
3407;SDS011;1717;50.240;8.406;2023-06-19T04:01:43;8.93;;;8.00;;
3407;SDS011;1717;50.240;8.406;2023-06-19T04:04:10;9.77;;;8.97;;
3407;SDS011;1717;50.240;8.406;2023-06-19T04:06:36;10.60;;;9.80;;
3407;SDS011;1717;50.240;8.406;2023-06-19T04:09:03;10.23;;;9.33;;
3407;SDS011;1717;50.240;8.406;2023-06-19T04:11:31;9.20;;;8.30;;
3407;SDS011;1717;50.240;8.406;2023-06-19T04:13:59;8.43;;;7.73;;
3407;SDS011;1717;50.240;8.406;2023-06-19T04:16:25;8.67;;;7.83;;
3407;SDS011;1717;50.240;8.406;2023-06-19T04:18:52;9.73;;;8.80;;
3407;SDS011;1717;50.240;8.406;2023-06-19T04:21:19;8.53;;;7.83;;
3407;SDS011;1717;50.240;8.406;2023-06-19T04:23:46;9.03;;;8.33;;
3407;SDS011;1717;50.240;8.406;2023-06-19T04:26:13;7.87;;;7.27;;
3407;SDS011;1717;50.240;8.406;2023-06-19T04:28:40;8.07;;;7.40;;
3407;SDS011;1717;50.240;8.406;2023-06-19T04:31:09;9.40;;;7.60;;
3407;SDS011;1717;50.240;8.406;2023-06-19T04:33:35;8.10;;;7.50;;
3407;SDS011;1717;50.240;8.406;2023-06-19T04:36:02;9.13;;;8.23;;
3407;SDS011;1717;50.240;8.406;2023-06-19T04:38:29;8.57;;;7.77;;
3407;SDS011;1717;50.240;8.406;2023-06-19T04:40:56;8.43;;;7.73;;
3407;SDS011;1717;50.240;8.406;2023-06-19T04:43:23;8.87;;;8.17;;
3407;SDS011;1717;50.240;8.406;2023-06-19T04:45:50;8.83;;;8.13;;
3407;SDS011;1717;50.240;8.406;2023-06-19T04:48:18;8.90;;;8.10;;
3407;SDS011;1717;50.240;8.406;2023-06-19T04:50:51;7.97;;;7.30;;
3407;SDS011;1717;50.240;8.406;2023-06-19T04:53:17;9.20;;;8.37;;
3407;SDS011;1717;50.240;8.406;2023-06-19T04:55:44;7.60;;;7.00;;
3407;SDS011;1717;50.240;8.406;2023-06-19T04:58:11;8.07;;;7.37;;
3407;SDS011;1717;50.240;8.406;2023-06-19T05:00:38;8.10;;;7.50;;
3407;SDS011;1717;50.240;8.406;2023-06-19T05:03:05;7.50;;;6.90;;
3407;SDS011;1717;50.240;8.406;2023-06-19T05:05:33;7.10;;;6.50;;
3407;SDS011;1717;50.240;8.406;2023-06-19T05:08:00;7.27;;;6.67;;
3407;SDS011;1717;50.240;8.406;2023-06-19T05:10:27;8.37;;;7.57;;
3407;SDS011;1717;50.240;8.406;2023-06-19T05:12:54;7.07;;;6.40;;
3407;SDS011;1717;50.240;8.406;2023-06-19T05:15:21;6.83;;;6.13;;
3407;SDS011;1717;50.240;8.406;2023-06-19T05:17:48;6.97;;;6.40;;
3407;SDS011;1717;50.240;8.406;2023-06-19T05:20:14;7.47;;;6.87;;
3407;SDS011;1717;50.240;8.406;2023-06-19T05:22:43;6.40;;;5.80;;
3407;SDS011;1717;50.240;8.406;2023-06-19T05:25:10;7.37;;;6.80;;
3407;SDS011;1717;50.240;8.406;2023-06-19T05:27:37;6.73;;;6.20;;
3407;SDS011;1717;50.240;8.406;2023-06-19T05:30:04;7.03;;;6.33;;
3407;SDS011;1717;50.240;8.406;2023-06-19T05:32:32;6.63;;;6.13;;
3407;SDS011;1717;50.240;8.406;2023-06-19T05:34:58;6.73;;;6.23;;
3407;SDS011;1717;50.240;8.406;2023-06-19T05:37:25;6.67;;;6.07;;
3407;SDS011;1717;50.240;8.406;2023-06-19T05:39:54;6.83;;;6.33;;
3407;SDS011;1717;50.240;8.406;2023-06-19T05:42:22;6.43;;;5.83;;
3407;SDS011;1717;50.240;8.406;2023-06-19T05:44:48;6.40;;;5.90;;
3407;SDS011;1717;50.240;8.406;2023-06-19T05:47:15;6.97;;;6.37;;
3407;SDS011;1717;50.240;8.406;2023-06-19T05:49:44;6.90;;;6.30;;
3407;SDS011;1717;50.240;8.406;2023-06-19T05:52:11;6.03;;;5.53;;
3407;SDS011;1717;50.240;8.406;2023-06-19T05:54:38;6.10;;;5.60;;
3407;SDS011;1717;50.240;8.406;2023-06-19T05:57:06;6.97;;;6.43;;
3407;SDS011;1717;50.240;8.406;2023-06-19T05:59:33;7.87;;;6.53;;
3407;SDS011;1717;50.240;8.406;2023-06-19T06:02:00;5.90;;;5.40;;
3407;SDS011;1717;50.240;8.406;2023-06-19T06:04:28;6.50;;;6.00;;
3407;SDS011;1717;50.240;8.406;2023-06-19T06:06:55;6.63;;;6.10;;
3407;SDS011;1717;50.240;8.406;2023-06-19T06:09:22;6.50;;;5.70;;
3407;SDS011;1717;50.240;8.406;2023-06-19T06:11:49;6.07;;;5.57;;
3407;SDS011;1717;50.240;8.406;2023-06-19T06:14:17;6.27;;;5.77;;
3407;SDS011;1717;50.240;8.406;2023-06-19T06:16:44;6.07;;;5.57;;
3407;SDS011;1717;50.240;8.406;2023-06-19T06:19:11;6.20;;;5.60;;
3407;SDS011;1717;50.240;8.406;2023-06-19T06:21:38;5.27;;;4.87;;
3407;SDS011;1717;50.240;8.406;2023-06-19T06:24:06;6.00;;;4.93;;
3407;SDS011;1717;50.240;8.406;2023-06-19T06:26:32;5.23;;;4.73;;
3407;SDS011;1717;50.240;8.406;2023-06-19T06:29:00;5.37;;;4.80;;
3407;SDS011;1717;50.240;8.406;2023-06-19T06:31:28;5.80;;;4.40;;
3407;SDS011;1717;50.240;8.406;2023-06-19T06:33:55;4.60;;;4.20;;
3407;SDS011;1717;50.240;8.406;2023-06-19T06:36:22;4.70;;;4.30;;
3407;SDS011;1717;50.240;8.406;2023-06-19T06:38:50;4.33;;;3.93;;
3407;SDS011;1717;50.240;8.406;2023-06-19T06:41:16;3.97;;;3.67;;
3407;SDS011;1717;50.240;8.406;2023-06-19T06:43:43;4.70;;;4.30;;
3407;SDS011;1717;50.240;8.406;2023-06-19T06:46:10;4.20;;;3.90;;
3407;SDS011;1717;50.240;8.406;2023-06-19T06:48:38;5.50;;;4.50;;
3407;SDS011;1717;50.240;8.406;2023-06-19T06:51:05;4.03;;;3.63;;
3407;SDS011;1717;50.240;8.406;2023-06-19T06:53:34;3.70;;;3.40;;
3407;SDS011;1717;50.240;8.406;2023-06-19T06:56:01;4.07;;;3.77;;
3407;SDS011;1717;50.240;8.406;2023-06-19T06:58:28;4.40;;;4.10;;
3407;SDS011;1717;50.240;8.406;2023-06-19T07:00:55;5.40;;;4.90;;
3407;SDS011;1717;50.240;8.406;2023-06-19T07:03:22;4.00;;;3.60;;
3407;SDS011;1717;50.240;8.406;2023-06-19T07:05:50;4.60;;;4.20;;
3407;SDS011;1717;50.240;8.406;2023-06-19T07:08:17;3.70;;;3.40;;
3407;SDS011;1717;50.240;8.406;2023-06-19T07:10:44;4.23;;;3.83;;
3407;SDS011;1717;50.240;8.406;2023-06-19T07:13:11;3.87;;;3.57;;
3407;SDS011;1717;50.240;8.406;2023-06-19T07:15:38;4.20;;;3.80;;
3407;SDS011;1717;50.240;8.406;2023-06-19T07:18:05;4.03;;;3.73;;
3407;SDS011;1717;50.240;8.406;2023-06-19T07:20:31;4.33;;;4.03;;
3407;SDS011;1717;50.240;8.406;2023-06-19T07:23:00;4.10;;;3.80;;
3407;SDS011;1717;50.240;8.406;2023-06-19T07:25:27;4.30;;;3.90;;
3407;SDS011;1717;50.240;8.406;2023-06-19T07:27:54;3.70;;;3.40;;
3407;SDS011;1717;50.240;8.406;2023-06-19T07:30:21;4.50;;;4.10;;
3407;SDS011;1717;50.240;8.406;2023-06-19T07:32:48;4.47;;;4.07;;
3407;SDS011;1717;50.240;8.406;2023-06-19T07:35:15;4.30;;;3.83;;
3407;SDS011;1717;50.240;8.406;2023-06-19T07:37:42;4.70;;;4.03;;
3407;SDS011;1717;50.240;8.406;2023-06-19T07:40:12;5.87;;;4.23;;
3407;SDS011;1717;50.240;8.406;2023-06-19T07:42:39;5.30;;;4.37;;
3407;SDS011;1717;50.240;8.406;2023-06-19T07:45:06;4.67;;;4.27;;
3407;SDS011;1717;50.240;8.406;2023-06-19T07:47:34;4.83;;;4.43;;
3407;SDS011;1717;50.240;8.406;2023-06-19T07:50:00;4.13;;;3.80;;
3407;SDS011;1717;50.240;8.406;2023-06-19T07:52:27;4.90;;;4.50;;
3407;SDS011;1717;50.240;8.406;2023-06-19T07:54:55;5.10;;;4.70;;
3407;SDS011;1717;50.240;8.406;2023-06-19T07:57:24;5.40;;;5.00;;
3407;SDS011;1717;50.240;8.406;2023-06-19T07:59:52;4.97;;;4.57;;
3407;SDS011;1717;50.240;8.406;2023-06-19T08:02:20;4.83;;;4.43;;
3407;SDS011;1717;50.240;8.406;2023-06-19T08:04:47;5.50;;;5.10;;
3407;SDS011;1717;50.240;8.406;2023-06-19T08:07:16;5.80;;;5.27;;
3407;SDS011;1717;50.240;8.406;2023-06-19T08:09:43;5.40;;;4.77;;
3407;SDS011;1717;50.240;8.406;2023-06-19T08:12:10;10.30;;;5.77;;
3407;SDS011;1717;50.240;8.406;2023-06-19T08:14:38;5.53;;;5.03;;
3407;SDS011;1717;50.240;8.406;2023-06-19T08:17:05;5.60;;;5.10;;
3407;SDS011;1717;50.240;8.406;2023-06-19T08:19:32;6.80;;;5.70;;
3407;SDS011;1717;50.240;8.406;2023-06-19T08:21:59;4.77;;;4.37;;
3407;SDS011;1717;50.240;8.406;2023-06-19T08:24:27;5.63;;;5.23;;
3407;SDS011;1717;50.240;8.406;2023-06-19T08:26:54;5.80;;;5.37;;
3407;SDS011;1717;50.240;8.406;2023-06-19T08:29:21;6.17;;;5.67;;
3407;SDS011;1717;50.240;8.406;2023-06-19T08:31:50;7.07;;;6.47;;
3407;SDS011;1717;50.240;8.406;2023-06-19T08:34:17;6.13;;;5.53;;
3407;SDS011;1717;50.240;8.406;2023-06-19T08:36:44;5.93;;;5.30;;
3407;SDS011;1717;50.240;8.406;2023-06-19T08:39:11;6.00;;;5.50;;
3407;SDS011;1717;50.240;8.406;2023-06-19T08:41:38;5.90;;;5.40;;
3407;SDS011;1717;50.240;8.406;2023-06-19T08:44:06;5.70;;;5.20;;
3407;SDS011;1717;50.240;8.406;2023-06-19T08:46:33;5.97;;;5.37;;
3407;SDS011;1717;50.240;8.406;2023-06-19T08:49:03;6.40;;;5.80;;
3407;SDS011;1717;50.240;8.406;2023-06-19T08:51:32;6.37;;;5.87;;
3407;SDS011;1717;50.240;8.406;2023-06-19T08:54:00;6.90;;;6.33;;
3407;SDS011;1717;50.240;8.406;2023-06-19T08:56:29;6.17;;;5.67;;
3407;SDS011;1717;50.240;8.406;2023-06-19T08:59:07;6.60;;;6.10;;
3407;SDS011;1717;50.240;8.406;2023-06-19T09:01:34;6.80;;;6.30;;
3407;SDS011;1717;50.240;8.406;2023-06-19T09:04:09;6.63;;;6.03;;
3407;SDS011;1717;50.240;8.406;2023-06-19T09:06:44;7.03;;;6.07;;
3407;SDS011;1717;50.240;8.406;2023-06-19T09:09:14;6.00;;;5.57;;
3407;SDS011;1717;50.240;8.406;2023-06-19T09:11:42;6.13;;;5.63;;
3407;SDS011;1717;50.240;8.406;2023-06-19T09:14:09;7.00;;;6.40;;
3407;SDS011;1717;50.240;8.406;2023-06-19T09:16:37;6.53;;;5.97;;
3407;SDS011;1717;50.240;8.406;2023-06-19T09:19:05;6.17;;;5.67;;
3407;SDS011;1717;50.240;8.406;2023-06-19T09:21:34;6.50;;;5.93;;
3407;SDS011;1717;50.240;8.406;2023-06-19T09:24:03;6.20;;;5.63;;
3407;SDS011;1717;50.240;8.406;2023-06-19T09:26:31;6.30;;;5.70;;
3407;SDS011;1717;50.240;8.406;2023-06-19T09:28:58;5.97;;;5.43;;
3407;SDS011;1717;50.240;8.406;2023-06-19T09:31:36;6.77;;;5.73;;
3407;SDS011;1717;50.240;8.406;2023-06-19T09:34:04;6.80;;;6.20;;
3407;SDS011;1717;50.240;8.406;2023-06-19T09:36:31;5.97;;;5.53;;
3407;SDS011;1717;50.240;8.406;2023-06-19T09:39:01;4.97;;;4.60;;
3407;SDS011;1717;50.240;8.406;2023-06-19T09:41:29;5.80;;;5.30;;
3407;SDS011;1717;50.240;8.406;2023-06-19T09:43:55;5.47;;;5.07;;
3407;SDS011;1717;50.240;8.406;2023-06-19T09:46:25;5.37;;;4.97;;
3407;SDS011;1717;50.240;8.406;2023-06-19T09:48:55;5.50;;;5.00;;
3407;SDS011;1717;50.240;8.406;2023-06-19T09:51:27;5.80;;;5.40;;
3407;SDS011;1717;50.240;8.406;2023-06-19T09:53:58;5.80;;;5.20;;
3407;SDS011;1717;50.240;8.406;2023-06-19T09:56:27;5.13;;;4.73;;
3407;SDS011;1717;50.240;8.406;2023-06-19T09:58:55;5.73;;;5.33;;
3407;SDS011;1717;50.240;8.406;2023-06-19T10:01:25;5.27;;;4.77;;
3407;SDS011;1717;50.240;8.406;2023-06-19T10:04:01;5.60;;;5.03;;
3407;SDS011;1717;50.240;8.406;2023-06-19T10:06:30;5.53;;;5.03;;
3407;SDS011;1717;50.240;8.406;2023-06-19T10:09:05;6.40;;;4.83;;
3407;SDS011;1717;50.240;8.406;2023-06-19T10:11:44;6.03;;;5.53;;
3407;SDS011;1717;50.240;8.406;2023-06-19T10:14:12;5.60;;;5.10;;
3407;SDS011;1717;50.240;8.406;2023-06-19T10:16:40;6.10;;;5.47;;
3407;SDS011;1717;50.240;8.406;2023-06-19T10:19:11;5.13;;;4.73;;
3407;SDS011;1717;50.240;8.406;2023-06-19T10:21:46;6.43;;;5.93;;
3407;SDS011;1717;50.240;8.406;2023-06-19T10:24:15;5.17;;;4.67;;
3407;SDS011;1717;50.240;8.406;2023-06-19T10:26:54;5.07;;;4.67;;
3407;SDS011;1717;50.240;8.406;2023-06-19T10:29:22;6.10;;;5.50;;
3407;SDS011;1717;50.240;8.406;2023-06-19T10:31:50;5.57;;;5.17;;
3407;SDS011;1717;50.240;8.406;2023-06-19T10:34:17;5.67;;;4.87;;
3407;SDS011;1717;50.240;8.406;2023-06-19T10:36:44;7.10;;;5.80;;
3407;SDS011;1717;50.240;8.406;2023-06-19T10:39:11;6.00;;;5.60;;
3407;SDS011;1717;50.240;8.406;2023-06-19T10:41:40;5.73;;;5.23;;
3407;SDS011;1717;50.240;8.406;2023-06-19T10:44:07;6.23;;;5.73;;
3407;SDS011;1717;50.240;8.406;2023-06-19T10:46:37;5.87;;;5.37;;
3407;SDS011;1717;50.240;8.406;2023-06-19T10:49:06;5.87;;;5.47;;
3407;SDS011;1717;50.240;8.406;2023-06-19T10:51:36;6.00;;;5.50;;
3407;SDS011;1717;50.240;8.406;2023-06-19T10:54:04;6.60;;;6.00;;
3407;SDS011;1717;50.240;8.406;2023-06-19T10:56:32;6.20;;;5.73;;
3407;SDS011;1717;50.240;8.406;2023-06-19T10:59:01;8.90;;;5.93;;
3407;SDS011;1717;50.240;8.406;2023-06-19T11:01:34;6.40;;;5.90;;
3407;SDS011;1717;50.240;8.406;2023-06-19T11:04:02;5.57;;;5.17;;
3407;SDS011;1717;50.240;8.406;2023-06-19T11:06:30;6.30;;;5.70;;
3407;SDS011;1717;50.240;8.406;2023-06-19T11:08:58;5.93;;;5.40;;
3407;SDS011;1717;50.240;8.406;2023-06-19T11:11:34;6.20;;;5.60;;
3407;SDS011;1717;50.240;8.406;2023-06-19T11:14:03;6.27;;;5.30;;
3407;SDS011;1717;50.240;8.406;2023-06-19T11:16:31;5.80;;;5.20;;
3407;SDS011;1717;50.240;8.406;2023-06-19T11:18:58;6.57;;;5.90;;
3407;SDS011;1717;50.240;8.406;2023-06-19T11:21:29;6.70;;;6.20;;
3407;SDS011;1717;50.240;8.406;2023-06-19T11:23:58;5.43;;;5.03;;
3407;SDS011;1717;50.240;8.406;2023-06-19T11:26:25;6.03;;;5.53;;
3407;SDS011;1717;50.240;8.406;2023-06-19T11:28:52;6.73;;;5.93;;
3407;SDS011;1717;50.240;8.406;2023-06-19T11:31:25;8.43;;;5.63;;
3407;SDS011;1717;50.240;8.406;2023-06-19T11:33:59;6.43;;;5.87;;
3407;SDS011;1717;50.240;8.406;2023-06-19T11:36:27;6.57;;;5.23;;
3407;SDS011;1717;50.240;8.406;2023-06-19T11:38:55;6.13;;;5.53;;
3407;SDS011;1717;50.240;8.406;2023-06-19T11:41:25;6.10;;;5.47;;
3407;SDS011;1717;50.240;8.406;2023-06-19T11:43:58;8.77;;;5.90;;
3407;SDS011;1717;50.240;8.406;2023-06-19T11:46:29;6.50;;;5.90;;
3407;SDS011;1717;50.240;8.406;2023-06-19T11:49:06;7.37;;;5.57;;
3407;SDS011;1717;50.240;8.406;2023-06-19T11:51:34;8.13;;;6.90;;
3407;SDS011;1717;50.240;8.406;2023-06-19T11:54:01;5.80;;;5.30;;
3407;SDS011;1717;50.240;8.406;2023-06-19T11:56:28;5.70;;;5.30;;
3407;SDS011;1717;50.240;8.406;2023-06-19T11:58:55;8.03;;;6.10;;
3407;SDS011;1717;50.240;8.406;2023-06-19T12:01:22;6.40;;;5.90;;
3407;SDS011;1717;50.240;8.406;2023-06-19T12:03:50;6.67;;;6.07;;
3407;SDS011;1717;50.240;8.406;2023-06-19T12:06:17;6.53;;;5.93;;
3407;SDS011;1717;50.240;8.406;2023-06-19T12:08:44;7.47;;;6.17;;
3407;SDS011;1717;50.240;8.406;2023-06-19T12:11:11;6.10;;;5.60;;
3407;SDS011;1717;50.240;8.406;2023-06-19T12:13:39;5.57;;;5.00;;
3407;SDS011;1717;50.240;8.406;2023-06-19T12:16:07;5.83;;;5.23;;
3407;SDS011;1717;50.240;8.406;2023-06-19T12:18:34;5.87;;;5.37;;
3407;SDS011;1717;50.240;8.406;2023-06-19T12:21:02;6.07;;;5.30;;
3407;SDS011;1717;50.240;8.406;2023-06-19T12:23:29;7.10;;;5.97;;
3407;SDS011;1717;50.240;8.406;2023-06-19T12:25:56;6.47;;;5.03;;
3407;SDS011;1717;50.240;8.406;2023-06-19T12:28:23;5.27;;;4.77;;
3407;SDS011;1717;50.240;8.406;2023-06-19T12:30:50;5.37;;;4.97;;
3407;SDS011;1717;50.240;8.406;2023-06-19T12:33:18;6.20;;;5.37;;
3407;SDS011;1717;50.240;8.406;2023-06-19T12:35:45;8.93;;;5.60;;
3407;SDS011;1717;50.240;8.406;2023-06-19T12:38:14;5.73;;;5.23;;
3407;SDS011;1717;50.240;8.406;2023-06-19T12:40:40;5.57;;;5.07;;
3407;SDS011;1717;50.240;8.406;2023-06-19T12:43:07;5.33;;;4.83;;
3407;SDS011;1717;50.240;8.406;2023-06-19T12:45:34;5.33;;;4.53;;
3407;SDS011;1717;50.240;8.406;2023-06-19T12:48:01;6.93;;;5.50;;
3407;SDS011;1717;50.240;8.406;2023-06-19T12:50:28;5.93;;;5.43;;
3407;SDS011;1717;50.240;8.406;2023-06-19T12:52:55;5.10;;;4.70;;
3407;SDS011;1717;50.240;8.406;2023-06-19T12:55:23;5.43;;;4.87;;
3407;SDS011;1717;50.240;8.406;2023-06-19T12:57:50;4.90;;;4.57;;
3407;SDS011;1717;50.240;8.406;2023-06-19T13:00:17;6.10;;;4.47;;
3407;SDS011;1717;50.240;8.406;2023-06-19T13:02:44;5.50;;;5.00;;
3407;SDS011;1717;50.240;8.406;2023-06-19T13:05:12;5.80;;;4.67;;
3407;SDS011;1717;50.240;8.406;2023-06-19T13:07:39;5.93;;;5.53;;
3407;SDS011;1717;50.240;8.406;2023-06-19T13:10:06;5.93;;;5.07;;
3407;SDS011;1717;50.240;8.406;2023-06-19T13:12:35;5.03;;;4.57;;
3407;SDS011;1717;50.240;8.406;2023-06-19T13:15:02;5.13;;;4.73;;
3407;SDS011;1717;50.240;8.406;2023-06-19T13:17:30;6.17;;;5.57;;
3407;SDS011;1717;50.240;8.406;2023-06-19T13:19:57;5.40;;;4.90;;
3407;SDS011;1717;50.240;8.406;2023-06-19T13:22:24;6.10;;;5.50;;
3407;SDS011;1717;50.240;8.406;2023-06-19T13:24:51;8.17;;;4.33;;
3407;SDS011;1717;50.240;8.406;2023-06-19T13:27:18;6.67;;;6.07;;
3407;SDS011;1717;50.240;8.406;2023-06-19T13:29:46;5.33;;;4.93;;
3407;SDS011;1717;50.240;8.406;2023-06-19T13:32:13;6.90;;;4.83;;
3407;SDS011;1717;50.240;8.406;2023-06-19T13:34:40;5.47;;;5.00;;
3407;SDS011;1717;50.240;8.406;2023-06-19T13:37:07;6.60;;;5.03;;
3407;SDS011;1717;50.240;8.406;2023-06-19T13:39:34;4.80;;;4.27;;
3407;SDS011;1717;50.240;8.406;2023-06-19T13:42:01;6.27;;;4.77;;
3407;SDS011;1717;50.240;8.406;2023-06-19T13:44:28;6.10;;;5.50;;
3407;SDS011;1717;50.240;8.406;2023-06-19T13:46:57;5.53;;;4.90;;
3407;SDS011;1717;50.240;8.406;2023-06-19T13:49:24;5.37;;;4.87;;
3407;SDS011;1717;50.240;8.406;2023-06-19T13:51:50;6.63;;;6.07;;
3407;SDS011;1717;50.240;8.406;2023-06-19T13:54:17;5.30;;;4.90;;
3407;SDS011;1717;50.240;8.406;2023-06-19T13:56:45;7.10;;;5.90;;
3407;SDS011;1717;50.240;8.406;2023-06-19T13:59:12;5.53;;;5.03;;
3407;SDS011;1717;50.240;8.406;2023-06-19T14:01:39;5.27;;;4.77;;
3407;SDS011;1717;50.240;8.406;2023-06-19T14:04:08;6.20;;;5.60;;
3407;SDS011;1717;50.240;8.406;2023-06-19T14:06:35;5.90;;;5.30;;
3407;SDS011;1717;50.240;8.406;2023-06-19T14:09:03;5.17;;;4.73;;
3407;SDS011;1717;50.240;8.406;2023-06-19T14:13:58;5.43;;;5.03;;
3407;SDS011;1717;50.240;8.406;2023-06-19T14:16:25;6.00;;;5.33;;
3407;SDS011;1717;50.240;8.406;2023-06-19T14:18:51;4.83;;;4.43;;
3407;SDS011;1717;50.240;8.406;2023-06-19T14:21:20;5.43;;;4.93;;
3407;SDS011;1717;50.240;8.406;2023-06-19T14:23:48;5.80;;;5.20;;
3407;SDS011;1717;50.240;8.406;2023-06-19T14:26:15;6.03;;;5.47;;
3407;SDS011;1717;50.240;8.406;2023-06-19T14:28:42;5.73;;;4.77;;
3407;SDS011;1717;50.240;8.406;2023-06-19T14:31:09;5.33;;;4.83;;
3407;SDS011;1717;50.240;8.406;2023-06-19T14:33:36;5.30;;;4.80;;
3407;SDS011;1717;50.240;8.406;2023-06-19T14:36:03;7.83;;;4.57;;
3407;SDS011;1717;50.240;8.406;2023-06-19T14:38:31;5.77;;;5.27;;
3407;SDS011;1717;50.240;8.406;2023-06-19T14:40:59;4.97;;;4.57;;
3407;SDS011;1717;50.240;8.406;2023-06-19T14:43:26;5.67;;;5.13;;
3407;SDS011;1717;50.240;8.406;2023-06-19T14:45:54;5.40;;;4.90;;
3407;SDS011;1717;50.240;8.406;2023-06-19T14:48:21;6.17;;;5.47;;
3407;SDS011;1717;50.240;8.406;2023-06-19T14:50:48;5.87;;;4.87;;
3407;SDS011;1717;50.240;8.406;2023-06-19T14:53:15;5.63;;;4.97;;
3407;SDS011;1717;50.240;8.406;2023-06-19T14:55:43;5.73;;;5.33;;
3407;SDS011;1717;50.240;8.406;2023-06-19T14:58:12;4.87;;;4.37;;
3407;SDS011;1717;50.240;8.406;2023-06-19T15:00:39;5.80;;;5.30;;
3407;SDS011;1717;50.240;8.406;2023-06-19T15:03:06;6.10;;;5.13;;
3407;SDS011;1717;50.240;8.406;2023-06-19T15:05:33;5.83;;;5.43;;
3407;SDS011;1717;50.240;8.406;2023-06-19T15:08:00;6.03;;;5.43;;
3407;SDS011;1717;50.240;8.406;2023-06-19T15:10:28;6.47;;;5.97;;
3407;SDS011;1717;50.240;8.406;2023-06-19T15:12:56;5.20;;;4.80;;
3407;SDS011;1717;50.240;8.406;2023-06-19T15:15:23;5.70;;;5.27;;
3407;SDS011;1717;50.240;8.406;2023-06-19T15:17:50;5.90;;;5.40;;
3407;SDS011;1717;50.240;8.406;2023-06-19T15:20:17;5.60;;;5.20;;